Time;durP1;ratioP1;P1;durP2;ratioP2;P2;SDS_P1;SDS_P2;PMS_P1;PMS_P2;Temp;Humidity;BMP_temperature;BMP_pressure;BME280_temperature;BME280_humidity;BME280_pressure;Samples;Min_cycle;Max_cycle;Signal;HPM_P1;HPM_P2
2022/11/05 00:10:28;;;;;;;10.17;5.67;;;8.10;99.90;;;;;;4974065;28;20321;-80
2022/11/05 00:18:24;;;;;;;9.73;5.60;;;8.20;99.90;;;;;;4974029;28;20046;-80
2022/11/05 00:20:49;;;;;;;11.40;5.40;;;8.30;99.90;;;;;;4956757;28;20562;-80
2022/11/05 00:26:03;;;;;;;9.67;5.30;;;8.30;99.90;;;;;;4971094;28;20140;-79
2022/11/05 00:28:29;;;;;;;11.97;5.43;;;8.30;99.90;;;;;;4967632;28;20488;-79
2022/11/05 00:31:04;;;;;;;10.27;5.23;;;8.30;99.90;;;;;;4955478;28;20027;-79
2022/11/05 00:33:31;;;;;;;10.67;6.07;;;8.40;99.90;;;;;;4970627;28;20023;-79
2022/11/05 00:35:57;;;;;;;13.17;5.70;;;8.40;99.90;;;;;;4956408;28;20038;-79
2022/11/05 00:38:22;;;;;;;9.90;5.80;;;8.30;99.90;;;;;;4972177;28;20398;-79
2022/11/05 00:40:48;;;;;;;11.03;6.10;;;8.30;99.90;;;;;;4956504;28;20444;-79
2022/11/05 00:45:58;;;;;;;;;;;8.30;99.90;;;;;;4959415;28;20069;-79
2022/11/05 00:51:08;;;;;;;10.65;5.47;;;8.30;99.90;;;;;;4973790;28;20111;-79
2022/11/05 00:53:35;;;;;;;12.07;5.40;;;8.30;99.90;;;;;;4975766;28;20027;-79
2022/11/05 00:56:00;;;;;;;11.87;4.87;;;8.30;99.90;;;;;;4975986;28;20116;-80
2022/11/05 00:58:28;;;;;;;10.27;5.47;;;8.30;99.90;;;;;;4975584;28;20092;-80
2022/11/05 01:00:59;;;;;;;9.53;5.47;;;8.30;99.90;;;;;;4977007;28;20430;-80
2022/11/05 01:03:31;;;;;;;16.27;6.13;;;8.30;99.90;;;;;;4976572;28;20030;-80
2022/11/05 01:06:05;;;;;;;11.73;5.57;;;8.30;99.90;;;;;;4975765;28;20047;-80
2022/11/05 01:08:30;;;;;;;11.10;5.05;;;8.30;99.90;;;;;;4976817;28;20106;-80
2022/11/05 01:10:57;;;;;;;9.20;4.90;;;8.30;99.90;;;;;;4975819;28;20126;-80
2022/11/05 01:13:28;;;;;;;9.50;4.70;;;8.30;99.90;;;;;;4975642;28;20026;-80
2022/11/05 01:15:55;;;;;;;11.87;4.80;;;8.10;99.90;;;;;;4975270;28;20467;-80
2022/11/05 01:18:22;;;;;;;12.00;5.07;;;8.20;99.90;;;;;;4975724;28;20085;-80
2022/11/05 01:20:49;;;;;;;8.17;4.57;;;8.10;99.90;;;;;;4976586;28;20029;-80
2022/11/05 01:23:15;;;;;;;7.43;4.63;;;8.10;99.90;;;;;;4976667;28;20369;-80
2022/11/05 01:25:41;;;;;;;10.77;4.90;;;8.10;99.90;;;;;;4975073;28;20041;-79
2022/11/05 01:28:08;;;;;;;11.43;5.40;;;8.10;99.90;;;;;;4959095;28;20035;-79
2022/11/05 01:30:34;;;;;;;8.57;4.97;;;8.00;99.90;;;;;;4959533;28;20027;-80
2022/11/05 01:32:59;;;;;;;14.53;5.20;;;8.00;99.90;;;;;;4975078;28;20061;-80
2022/11/05 01:35:25;;;;;;;14.00;5.67;;;7.90;99.90;;;;;;4959310;28;20077;-79
2022/11/05 01:37:51;;;;;;;9.13;5.50;;;7.90;99.90;;;;;;4975176;28;20438;-80
2022/11/05 01:40:21;;;;;;;10.13;5.43;;;7.90;99.90;;;;;;4943011;28;20457;-80
2022/11/05 01:42:47;;;;;;;8.50;5.03;;;7.90;99.90;;;;;;4974706;28;20035;-80
2022/11/05 01:45:22;;;;;;;8.03;5.53;;;7.80;99.90;;;;;;4942980;28;20081;-80
2022/11/05 01:48:05;;;;;;;8.27;4.90;;;7.80;99.90;;;;;;4974642;28;20042;-80
2022/11/05 01:50:37;;;;;;;9.23;4.80;;;7.70;99.90;;;;;;4974772;28;20023;-79
2022/11/05 01:53:14;;;;;;;11.20;5.30;;;7.70;99.90;;;;;;4974921;28;20062;-79
2022/11/05 01:55:45;;;;;;;9.37;4.67;;;7.70;99.90;;;;;;4975031;28;20479;-79
2022/11/05 01:58:20;;;;;;;12.63;6.17;;;7.60;99.90;;;;;;4975134;28;20029;-79
2022/11/05 02:00:46;;;;;;;8.90;4.90;;;7.60;99.90;;;;;;4991175;28;20029;-80
2022/11/05 02:03:14;;;;;;;10.43;5.93;;;7.50;99.90;;;;;;4975634;28;20054;-79
2022/11/05 02:05:40;;;;;;;10.37;5.67;;;7.50;99.90;;;;;;4974669;28;20034;-79
2022/11/05 02:08:13;;;;;;;13.63;5.37;;;7.50;99.90;;;;;;4975025;28;20391;-79
2022/11/05 02:10:42;;;;;;;10.63;5.20;;;7.50;99.90;;;;;;4974692;28;20023;-79
2022/11/05 02:13:07;;;;;;;11.13;5.90;;;7.40;99.90;;;;;;4975726;28;20034;-79
2022/11/05 02:15:48;;;;;;;10.17;5.50;;;7.40;99.90;;;;;;4958686;28;20033;-79
2022/11/05 02:18:43;;;;;;;9.23;5.97;;;7.40;99.90;;;;;;4974268;28;20471;-80
2022/11/05 02:21:41;;;;;;;10.00;5.50;;;7.40;99.90;;;;;;4944694;28;20030;-81
2022/11/05 02:24:28;;;;;;;9.00;5.63;;;7.40;99.90;;;;;;4974274;28;20395;-81
2022/11/05 02:27:03;;;;;;;10.77;5.73;;;7.40;99.90;;;;;;4974101;28;20031;-81
2022/11/05 02:29:51;;;;;;;11.57;6.03;;;7.30;99.90;;;;;;4973981;28;20557;-81
2022/11/05 02:32:25;;;;;;;10.00;6.10;;;7.30;99.90;;;;;;4975389;28;20030;-80
2022/11/05 02:35:14;;;;;;;11.07;5.13;;;7.30;99.90;;;;;;4973312;28;20035;-80
2022/11/05 02:37:47;;;;;;;11.00;6.23;;;7.20;99.90;;;;;;4974184;28;20043;-81
2022/11/05 02:40:22;;;;;;;11.93;6.67;;;7.20;99.90;;;;;;4973983;28;20023;-80
2022/11/05 02:43:03;;;;;;;13.40;5.93;;;7.20;99.90;;;;;;4973887;28;20509;-80
2022/11/05 02:45:45;;;;;;;12.57;6.33;;;7.10;99.90;;;;;;4973673;28;20078;-81
2022/11/05 02:48:38;;;;;;;12.70;6.03;;;7.10;99.90;;;;;;4974098;28;20035;-82
2022/11/05 02:51:10;;;;;;;11.57;5.87;;;7.10;99.90;;;;;;4954293;28;20046;-81
2022/11/05 02:54:05;;;;;;;12.20;6.17;;;7.10;99.90;;;;;;4954528;29;20475;-81
2022/11/05 02:56:34;;;;;;;10.50;6.00;;;7.10;99.90;;;;;;4969021;28;20027;-82
2022/11/05 02:59:00;;;;;;;13.07;5.43;;;7.00;99.90;;;;;;4970679;28;20043;-81
2022/11/05 03:01:26;;;;;;;9.97;5.40;;;7.00;99.90;;;;;;4937961;29;20411;-81
2022/11/05 03:03:57;;;;;;;9.30;5.83;;;7.00;99.90;;;;;;4969802;28;20035;-82
2022/11/05 03:06:54;;;;;;;9.97;5.47;;;7.00;99.90;;;;;;4955494;28;20039;-82
2022/11/05 03:09:50;;;;;;;11.07;5.53;;;7.00;99.90;;;;;;4970541;28;20113;-81
2022/11/05 03:12:26;;;;;;;9.10;4.50;;;7.00;99.90;;;;;;4919343;29;20080;-81
2022/11/05 03:15:06;;;;;;;9.70;4.37;;;6.90;99.90;;;;;;4954766;28;20031;-80
2022/11/05 03:17:40;;;;;;;10.97;4.17;;;7.00;99.90;;;;;;4970325;28;20039;-81
2022/11/05 03:20:19;;;;;;;9.67;4.80;;;6.90;99.90;;;;;;4970456;28;20090;-81
2022/11/05 03:23:04;;;;;;;14.73;5.57;;;6.90;99.90;;;;;;4955129;28;20106;-81
2022/11/05 03:25:31;;;;;;;10.00;3.92;;;6.90;99.90;;;;;;4970530;28;20027;-81
2022/11/05 03:28:03;;;;;;;8.53;4.20;;;6.80;99.90;;;;;;4969951;28;20042;-80
2022/11/05 03:30:32;;;;;;;6.80;4.33;;;6.90;99.90;;;;;;4970048;28;20031;-79
2022/11/05 03:33:02;;;;;;;10.63;4.93;;;6.90;99.90;;;;;;4969624;28;20537;-79
2022/11/05 03:35:33;;;;;;;8.03;4.43;;;6.80;99.90;;;;;;4955110;28;20182;-79
2022/11/05 03:38:06;;;;;;;9.43;4.70;;;6.80;99.90;;;;;;4969710;28;20023;-80
2022/11/05 03:40:35;;;;;;;10.35;4.70;;;6.80;99.90;;;;;;4955166;28;20125;-79
2022/11/05 03:43:05;;;;;;;8.97;4.57;;;6.70;99.90;;;;;;4955249;28;20035;-80
2022/11/05 03:45:40;;;;;;;10.33;4.40;;;6.70;99.90;;;;;;4969406;28;20047;-79
2022/11/05 03:48:09;;;;;;;11.33;3.87;;;6.70;99.90;;;;;;4969881;28;20035;-79
2022/11/05 03:50:39;;;;;;;15.33;4.10;;;6.60;99.90;;;;;;4953864;29;20465;-79
2022/11/05 03:53:30;;;;;;;8.63;3.33;;;6.70;99.90;;;;;;4969830;28;20106;-79
2022/11/05 03:56:02;;;;;;;6.73;4.13;;;6.60;99.90;;;;;;4950220;29;20118;-79
2022/11/05 03:58:28;;;;;;;7.17;3.47;;;6.60;99.90;;;;;;4969734;28;20070;-79
2022/11/05 04:00:54;;;;;;;6.10;3.67;;;6.60;99.90;;;;;;4938263;29;20087;-79
2022/11/05 04:03:20;;;;;;;8.93;3.47;;;6.50;99.90;;;;;;4921236;29;20031;-79
2022/11/05 04:13:22;;;;;;;11.93;4.07;;;6.50;99.90;;;;;;4937723;29;20102;-79
2022/11/05 04:13:59;;;;;;;8.60;3.88;;;6.50;99.90;;;;;;4953995;29;20046;-78
2022/11/05 04:19:09;;;;;;;8.77;4.13;;;6.40;99.90;;;;;;4940242;29;20059;-78
2022/11/05 04:24:18;;;;;;;11.70;4.57;;;6.40;99.90;;;;;;4940253;29;20050;-79
2022/11/05 04:26:44;;;;;;;6.77;3.70;;;6.50;99.90;;;;;;4940176;29;20039;-78
2022/11/05 04:31:54;;;;;;;;;;;6.40;99.90;;;;;;4958685;29;20046;-79
2022/11/05 04:34:23;;;;;;;7.83;3.83;;;6.40;99.90;;;;;;4956787;29;20298;-79
2022/11/05 04:36:52;;;;;;;7.63;4.13;;;6.30;99.90;;;;;;4973082;28;20023;-79
2022/11/05 04:39:19;;;;;;;10.33;4.87;;;6.30;99.90;;;;;;4973242;28;20046;-79
2022/11/05 04:41:48;;;;;;;8.83;5.10;;;6.20;99.90;;;;;;4973044;28;20102;-79
2022/11/05 04:44:15;;;;;;;13.70;5.80;;;6.30;99.90;;;;;;4956802;29;20031;-78
2022/11/05 04:46:41;;;;;;;10.30;5.23;;;6.40;99.90;;;;;;4972502;28;20392;-78
2022/11/05 04:49:07;;;;;;;9.93;4.83;;;6.30;99.90;;;;;;4956831;29;20476;-79
2022/11/05 04:51:32;;;;;;;9.47;4.50;;;6.30;99.90;;;;;;4957896;29;20039;-79
2022/11/05 04:53:58;;;;;;;11.90;4.73;;;6.30;99.90;;;;;;4972674;28;20024;-78
2022/11/05 04:56:25;;;;;;;9.37;5.07;;;6.30;99.90;;;;;;4956366;29;20027;-79
2022/11/05 04:58:51;;;;;;;12.50;5.23;;;6.40;99.90;;;;;;4972419;28;20118;-78
2022/11/05 05:01:19;;;;;;;9.90;5.70;;;6.30;99.90;;;;;;4956721;29;20395;-79
2022/11/05 05:03:49;;;;;;;8.67;5.07;;;6.20;99.90;;;;;;4957230;28;20102;-79
2022/11/05 05:06:15;;;;;;;15.17;5.23;;;6.30;99.90;;;;;;4972457;28;20067;-79
2022/11/05 05:08:41;;;;;;;11.97;5.67;;;6.20;99.90;;;;;;4957454;28;20028;-79
2022/11/05 05:11:10;;;;;;;10.27;6.33;;;6.30;99.90;;;;;;4955954;28;20027;-80
2022/11/05 05:13:36;;;;;;;13.63;6.27;;;6.20;99.90;;;;;;4972293;28;20094;-80
2022/11/05 05:16:07;;;;;;;11.37;5.73;;;6.20;99.90;;;;;;4972612;28;20424;-80
2022/11/05 05:18:33;;;;;;;11.93;6.57;;;6.20;99.90;;;;;;4972026;28;20035;-80
2022/11/05 05:23:46;;;;;;;13.03;6.27;;;6.30;99.90;;;;;;4957499;29;20054;-80
2022/11/05 05:26:12;;;;;;;11.33;6.80;;;6.20;99.90;;;;;;4955912;29;20480;-79
2022/11/05 05:28:38;;;;;;;13.93;7.83;;;6.20;99.90;;;;;;4972168;28;20023;-79
2022/11/05 05:31:03;;;;;;;12.40;7.10;;;6.20;99.90;;;;;;4955972;29;20031;-79
2022/11/05 05:33:29;;;;;;;11.47;7.40;;;6.10;99.90;;;;;;4956001;29;20042;-79
2022/11/05 05:35:58;;;;;;;12.73;8.23;;;6.20;99.90;;;;;;4955697;29;20031;-80
2022/11/05 05:38:24;;;;;;;12.93;7.30;;;6.10;99.90;;;;;;4971442;28;20388;-79
2022/11/05 05:40:50;;;;;;;14.30;7.80;;;6.10;99.90;;;;;;4971406;28;20023;-79
2022/11/05 05:43:16;;;;;;;14.47;7.30;;;6.10;99.90;;;;;;4923825;29;20035;-80
2022/11/05 05:45:42;;;;;;;17.03;8.23;;;6.10;99.90;;;;;;4923639;29;20057;-79
2022/11/05 05:48:08;;;;;;;12.63;7.53;;;6.10;99.90;;;;;;4924270;29;20122;-79
2022/11/05 05:50:33;;;;;;;14.63;7.53;;;6.10;99.90;;;;;;4956641;29;20028;-79
2022/11/05 05:52:59;;;;;;;16.03;7.57;;;6.10;99.90;;;;;;4961342;28;20547;-79
2022/11/05 05:55:25;;;;;;;15.13;8.27;;;6.10;99.90;;;;;;4942280;29;20019;-79
2022/11/05 05:57:50;;;;;;;13.70;7.57;;;6.10;99.90;;;;;;4984386;28;20039;-79
2022/11/05 06:00:16;;;;;;;11.47;7.70;;;6.10;99.90;;;;;;4955884;28;20023;-79
2022/11/05 06:02:42;;;;;;;13.07;7.07;;;6.20;99.90;;;;;;4974218;28;20019;-79
2022/11/05 06:05:08;;;;;;;16.47;8.20;;;6.20;99.90;;;;;;4954701;29;20387;-79
2022/11/05 06:07:33;;;;;;;15.20;8.50;;;6.10;99.90;;;;;;4954646;29;20036;-79
2022/11/05 06:09:59;;;;;;;14.10;7.70;;;6.20;99.90;;;;;;4971131;28;20372;-80
2022/11/05 06:12:25;;;;;;;16.47;7.37;;;6.20;99.90;;;;;;4955490;29;20027;-80
2022/11/05 06:14:50;;;;;;;14.00;8.70;;;6.20;99.90;;;;;;4955393;29;20031;-80
2022/11/05 06:17:16;;;;;;;11.50;7.77;;;6.20;99.90;;;;;;4955156;29;20031;-79
2022/11/05 06:19:41;;;;;;;15.00;8.37;;;6.20;99.90;;;;;;4954812;29;20495;-80
2022/11/05 06:22:07;;;;;;;19.33;8.83;;;6.20;99.90;;;;;;4955317;29;20109;-80
2022/11/05 06:24:32;;;;;;;12.90;8.07;;;6.20;99.90;;;;;;4954921;29;20387;-80
2022/11/05 06:26:58;;;;;;;16.60;8.20;;;6.10;99.90;;;;;;4954799;29;20492;-79
2022/11/05 06:29:24;;;;;;;16.17;8.33;;;6.10;99.90;;;;;;4970796;28;20031;-79
2022/11/05 06:31:49;;;;;;;17.23;8.13;;;6.10;99.90;;;;;;4954910;29;20431;-79
2022/11/05 06:34:15;;;;;;;13.13;8.93;;;6.20;99.90;;;;;;4954467;29;20032;-79
2022/11/05 06:36:41;;;;;;;12.40;8.00;;;6.10;99.90;;;;;;4970696;28;20035;-79
2022/11/05 06:39:10;;;;;;;13.07;8.27;;;6.10;99.90;;;;;;4955080;29;20027;-80
2022/11/05 06:41:36;;;;;;;13.93;8.63;;;6.10;99.90;;;;;;4954769;29;20059;-79
2022/11/05 06:44:02;;;;;;;15.20;9.03;;;6.10;99.90;;;;;;4970641;28;20035;-79
2022/11/05 06:46:27;;;;;;;11.73;8.00;;;6.10;99.90;;;;;;4970458;28;20142;-79
2022/11/05 06:48:53;;;;;;;12.50;8.17;;;6.20;99.90;;;;;;4970139;28;20027;-79
2022/11/05 06:51:19;;;;;;;14.50;8.90;;;6.10;99.90;;;;;;4970024;28;20868;-79
2022/11/05 06:53:45;;;;;;;16.47;8.60;;;6.00;99.90;;;;;;4954623;29;20439;-79
2022/11/05 06:56:10;;;;;;;16.40;9.50;;;6.00;99.90;;;;;;4954726;29;20023;-80
2022/11/05 06:58:36;;;;;;;13.73;8.63;;;6.00;99.90;;;;;;4970626;28;20384;-80
2022/11/05 07:01:07;;;;;;;13.23;9.27;;;5.90;99.90;;;;;;4955397;29;20027;-80
2022/11/05 07:03:34;;;;;;;20.27;10.37;;;6.00;99.90;;;;;;4964276;28;20030;-80
2022/11/05 07:06:00;;;;;;;16.17;10.13;;;6.00;99.90;;;;;;4971715;28;20030;-80
2022/11/05 07:08:31;;;;;;;14.40;9.50;;;6.00;99.90;;;;;;4963449;28;20027;-80
2022/11/05 07:10:57;;;;;;;15.57;9.73;;;6.00;99.90;;;;;;4973122;28;20033;-80
2022/11/05 07:13:22;;;;;;;16.13;10.43;;;5.90;99.90;;;;;;4953621;28;20479;-80
2022/11/05 07:15:48;;;;;;;14.70;10.20;;;6.00;99.90;;;;;;4959568;28;20082;-80
2022/11/05 07:18:14;;;;;;;16.83;9.77;;;6.00;99.90;;;;;;4954227;28;20465;-80
2022/11/05 07:20:39;;;;;;;19.23;9.70;;;6.00;99.90;;;;;;4957790;28;20117;-80
2022/11/05 07:23:08;;;;;;;16.67;9.37;;;6.10;99.90;;;;;;4963966;28;20029;-80
2022/11/05 07:25:34;;;;;;;22.00;11.47;;;6.10;99.90;;;;;;4964028;28;20078;-80
2022/11/05 07:28:00;;;;;;;18.53;10.97;;;6.10;99.90;;;;;;4972317;28;20046;-80
2022/11/05 07:30:26;;;;;;;18.23;10.43;;;6.10;99.90;;;;;;4956248;28;20030;-80
2022/11/05 07:32:52;;;;;;;19.63;10.70;;;6.20;99.90;;;;;;4971833;28;20105;-80
2022/11/05 07:35:17;;;;;;;20.63;10.37;;;6.20;99.90;;;;;;4955167;28;20446;-80
2022/11/05 07:37:44;;;;;;;15.50;10.50;;;6.20;99.90;;;;;;4955289;28;20365;-80
2022/11/05 07:40:12;;;;;;;18.07;10.53;;;6.20;99.90;;;;;;4956820;28;20027;-80
2022/11/05 07:42:44;;;;;;;15.17;9.40;;;6.30;99.90;;;;;;4972279;28;20030;-80
2022/11/05 07:45:11;;;;;;;14.93;9.87;;;6.30;99.90;;;;;;4988080;28;20386;-80
2022/11/05 07:47:47;;;;;;;17.73;11.07;;;6.30;99.90;;;;;;4992006;28;20046;-81
2022/11/05 07:50:14;;;;;;;16.73;10.73;;;6.40;99.90;;;;;;4982524;28;20033;-80
2022/11/05 07:52:40;;;;;;;18.53;10.57;;;6.50;99.90;;;;;;4980702;28;20101;-80
2022/11/05 07:55:06;;;;;;;18.77;10.40;;;6.50;99.90;;;;;;4976310;28;20471;-80
2022/11/05 07:57:38;;;;;;;17.57;10.40;;;6.60;99.90;;;;;;4960028;28;20539;-80
2022/11/05 08:00:04;;;;;;;19.33;10.07;;;6.60;99.90;;;;;;4960884;28;20035;-80
2022/11/05 08:02:30;;;;;;;17.67;10.80;;;6.60;99.90;;;;;;4997400;28;20034;-80
2022/11/05 08:04:56;;;;;;;20.00;10.93;;;6.60;99.90;;;;;;4980830;28;20041;-80
2022/11/05 08:07:21;;;;;;;19.10;10.40;;;6.70;99.90;;;;;;4964458;28;20422;-80
2022/11/05 08:09:47;;;;;;;17.07;11.13;;;6.80;99.90;;;;;;4963512;28;20042;-80
2022/11/05 08:12:12;;;;;;;15.90;10.23;;;6.80;99.90;;;;;;4963798;28;20035;-80
2022/11/05 08:14:38;;;;;;;18.13;10.23;;;6.90;99.90;;;;;;4963837;28;20481;-80
2022/11/05 08:17:04;;;;;;;21.43;11.83;;;6.90;99.90;;;;;;4963533;28;20150;-79
2022/11/05 08:19:29;;;;;;;16.20;10.23;;;7.00;99.90;;;;;;4963821;28;20031;-80
2022/11/05 08:21:55;;;;;;;15.97;10.10;;;7.00;99.90;;;;;;4979541;28;20053;-80
2022/11/05 08:24:21;;;;;;;16.37;9.90;;;7.10;99.90;;;;;;4979953;28;20041;-82
2022/11/05 08:26:46;;;;;;;21.27;10.97;;;7.00;99.90;;;;;;4960206;28;20537;-81
2022/11/05 08:29:12;;;;;;;14.33;9.77;;;7.10;99.90;;;;;;4962049;28;20026;-82
2022/11/05 08:31:37;;;;;;;19.40;10.63;;;7.20;99.90;;;;;;4957741;28;20390;-82
2022/11/05 08:34:03;;;;;;;16.47;10.83;;;7.20;99.90;;;;;;4976785;28;20027;-82
2022/11/05 08:36:28;;;;;;;15.83;10.30;;;7.30;99.90;;;;;;4977668;28;20035;-82
2022/11/05 08:38:54;;;;;;;16.77;10.93;;;7.30;99.90;;;;;;4955768;28;20475;-81
2022/11/05 08:41:20;;;;;;;15.03;10.23;;;7.30;99.90;;;;;;4978859;28;20030;-82
2022/11/05 08:43:45;;;;;;;18.57;11.10;;;7.40;99.90;;;;;;4979481;28;20032;-82
2022/11/05 08:46:11;;;;;;;19.97;9.97;;;7.40;99.90;;;;;;4960604;28;20046;-81
2022/11/05 08:48:37;;;;;;;19.03;10.87;;;7.50;99.90;;;;;;4963802;28;20479;-82
2022/11/05 08:51:02;;;;;;;16.47;10.40;;;7.50;99.90;;;;;;4997701;28;20438;-83
2022/11/05 08:53:28;;;;;;;18.40;10.33;;;7.60;99.90;;;;;;4979677;28;20105;-82
2022/11/05 08:55:57;;;;;;;19.67;10.67;;;7.70;99.90;;;;;;4962847;28;20034;-82
2022/11/05 08:58:24;;;;;;;17.80;10.47;;;7.70;99.90;;;;;;4978274;28;20038;-82
2022/11/05 09:00:49;;;;;;;17.73;10.50;;;7.80;99.90;;;;;;4963506;28;20478;-82
2022/11/05 09:03:15;;;;;;;16.70;10.27;;;7.80;99.90;;;;;;4963351;28;20037;-82
2022/11/05 09:05:41;;;;;;;13.63;9.43;;;7.90;99.90;;;;;;4978084;28;20386;-81
2022/11/05 09:08:10;;;;;;;18.60;9.47;;;7.90;99.90;;;;;;4978332;28;20034;-82
2022/11/05 09:10:36;;;;;;;14.77;8.67;;;8.00;99.90;;;;;;4977866;28;20018;-82
2022/11/05 09:13:02;;;;;;;15.13;8.40;;;8.10;99.90;;;;;;4992829;28;20483;-82
2022/11/05 09:15:28;;;;;;;15.40;9.00;;;8.20;99.90;;;;;;4996359;28;20061;-82
2022/11/05 09:17:54;;;;;;;15.30;9.37;;;8.20;99.90;;;;;;4947590;28;20451;-82
2022/11/05 09:20:20;;;;;;;13.20;8.37;;;8.40;99.90;;;;;;4972675;28;20030;-83
2022/11/05 09:22:46;;;;;;;12.10;8.63;;;8.50;99.90;;;;;;4996224;28;20030;-83
2022/11/05 09:25:14;;;;;;;12.27;7.77;;;8.70;99.90;;;;;;4995419;28;20068;-82
2022/11/05 09:27:39;;;;;;;16.20;7.53;;;8.90;99.90;;;;;;4995721;28;20037;-82
2022/11/05 09:30:05;;;;;;;14.70;7.03;;;9.30;99.90;;;;;;4994741;28;20026;-83
2022/11/05 09:32:31;;;;;;;9.23;5.33;;;9.60;99.90;;;;;;4978817;28;20097;-81
2022/11/05 09:34:59;;;;;;;8.10;4.78;;;10.10;99.90;;;;;;4978398;28;20356;-83
2022/11/05 09:37:25;;;;;;;6.95;3.58;;;10.60;99.90;;;;;;4962716;28;20073;-82
2022/11/05 09:39:51;;;;;;;11.13;4.63;;;11.20;99.90;;;;;;4963427;28;20034;-82
2022/11/05 09:42:19;;;;;;;10.15;3.38;;;11.90;99.90;;;;;;4963833;28;20615;-80
2022/11/05 09:45:17;;;;;;;7.00;3.30;;;12.60;99.90;;;;;;4995417;28;20031;-80
2022/11/05 09:47:55;;;;;;;6.57;2.60;;;13.30;99.90;;;;;;4995302;28;20042;-80
2022/11/05 09:50:32;;;;;;;4.82;2.55;;;14.20;99.90;;;;;;4995567;28;20577;-80
2022/11/05 09:52:58;;;;;;;5.45;2.40;;;14.90;99.90;;;;;;4995719;28;20034;-80
2022/11/05 09:55:37;;;;;;;4.30;2.33;;;15.60;99.90;;;;;;4994769;28;20033;-80
2022/11/05 09:58:12;;;;;;;5.53;2.20;;;16.20;99.90;;;;;;4994936;28;20018;-80
2022/11/05 10:00:39;;;;;;;5.55;2.10;;;16.80;99.90;;;;;;4994033;28;20470;-80
2022/11/05 10:03:12;;;;;;;6.45;1.83;;;17.30;99.90;;;;;;4993804;28;20026;-81
2022/11/05 10:05:39;;;;;;;4.60;1.65;;;17.80;96.70;;;;;;4995118;28;20026;-81
2022/11/05 10:08:16;;;;;;;4.50;2.10;;;18.10;95.50;;;;;;4994754;28;20045;-81
2022/11/05 10:11:11;;;;;;;5.28;1.58;;;18.50;93.40;;;;;;4997016;28;20030;-81
2022/11/05 10:13:57;;;;;;;6.13;1.65;;;19.00;92.10;;;;;;4987152;28;20038;-81
2022/11/05 10:16:29;;;;;;;2.85;1.40;;;19.30;91.20;;;;;;4994509;28;20061;-81
2022/11/05 10:19:23;;;;;;;4.70;1.70;;;19.60;87.50;;;;;;4993559;28;20034;-81
2022/11/05 10:21:49;;;;;;;5.65;1.73;;;19.80;81.40;;;;;;4995706;28;20014;-81
2022/11/05 10:24:19;;;;;;;5.38;1.63;;;20.00;80.60;;;;;;4993947;28;20042;-81
2022/11/05 10:26:52;;;;;;;8.32;2.30;;;19.90;76.70;;;;;;4994299;28;20049;-82
2022/11/05 10:29:28;;;;;;;6.40;2.25;;;19.80;73.70;;;;;;4993575;28;20486;-81
2022/11/05 10:31:58;;;;;;;6.80;2.42;;;19.70;73.90;;;;;;4977129;28;20458;-81
2022/11/05 10:34:37;;;;;;;6.35;2.00;;;19.60;72.40;;;;;;4976016;28;20073;-80
2022/11/05 10:37:02;;;;;;;5.90;2.20;;;19.40;71.60;;;;;;4971811;28;20106;-81
2022/11/05 10:39:30;;;;;;;6.78;2.72;;;19.00;68.60;;;;;;4977508;28;20455;-82
2022/11/05 10:42:07;;;;;;;5.97;2.25;;;18.70;67.90;;;;;;4961209;28;20545;-82
2022/11/05 10:44:39;;;;;;;6.00;2.55;;;18.40;69.00;;;;;;4994429;28;20030;-82
2022/11/05 10:47:13;;;;;;;8.30;2.70;;;18.40;69.50;;;;;;4976612;28;20065;-81
2022/11/05 10:49:58;;;;;;;7.72;3.22;;;18.10;67.70;;;;;;4989549;28;20041;-81
2022/11/05 10:52:36;;;;;;;7.68;3.28;;;17.80;67.60;;;;;;4972615;28;20067;-81
2022/11/05 10:55:14;;;;;;;7.25;3.33;;;17.50;67.30;;;;;;4985314;28;20593;-81
2022/11/05 10:57:40;;;;;;;6.95;2.45;;;17.20;68.30;;;;;;4992903;28;20018;-81
2022/11/05 11:00:15;;;;;;;6.28;2.60;;;16.90;69.10;;;;;;4989347;28;20026;-80
2022/11/05 11:02:57;;;;;;;6.63;2.92;;;16.70;69.50;;;;;;4976155;28;20026;-80
2022/11/05 11:05:36;;;;;;;9.13;3.20;;;16.50;69.10;;;;;;4976372;28;20029;-80
2022/11/05 11:08:10;;;;;;;6.70;3.63;;;16.30;69.40;;;;;;4978745;28;20196;-80
2022/11/05 11:10:46;;;;;;;8.30;3.42;;;16.10;69.50;;;;;;4963710;28;20135;-81
2022/11/05 11:13:24;;;;;;;6.72;2.67;;;15.80;70.40;;;;;;4973300;28;20018;-81
2022/11/05 11:15:50;;;;;;;7.45;3.08;;;15.70;71.20;;;;;;4993741;28;20027;-80
2022/11/05 11:18:41;;;;;;;11.35;3.67;;;15.70;71.30;;;;;;4976397;28;20470;-81
2022/11/05 11:21:13;;;;;;;9.05;3.72;;;15.60;71.10;;;;;;4969586;28;20030;-81
2022/11/05 11:23:41;;;;;;;10.27;3.72;;;15.40;71.30;;;;;;4994649;28;20094;-81
2022/11/05 11:26:09;;;;;;;7.00;3.00;;;15.30;71.60;;;;;;4993071;28;20386;-81
2022/11/05 11:28:55;;;;;;;9.93;3.63;;;15.10;71.80;;;;;;4976235;28;20033;-82
2022/11/05 11:31:24;;;;;;;8.45;3.42;;;14.90;72.20;;;;;;4975957;28;20027;-81
2022/11/05 11:34:03;;;;;;;6.60;2.65;;;14.80;72.80;;;;;;4977026;28;20038;-81
2022/11/05 11:36:37;;;;;;;6.25;2.97;;;14.70;73.40;;;;;;4974490;28;20030;-82
2022/11/05 11:39:03;;;;;;;;;;;14.60;73.70;;;;;;4977196;28;20030;-82
2022/11/05 11:41:41;;;;;;;11.63;3.10;;;14.40;73.70;;;;;;4976028;28;19906;-82
2022/11/05 11:44:32;;;;;;;5.78;2.55;;;14.30;74.00;;;;;;4976439;28;20490;-83
2022/11/05 11:47:10;;;;;;;8.85;3.10;;;14.20;74.20;;;;;;4992767;28;20148;-82
2022/11/05 11:49:38;;;;;;;7.38;2.80;;;14.10;74.60;;;;;;4976754;28;20034;-82
2022/11/05 11:52:11;;;;;;;8.63;2.67;;;14.10;75.10;;;;;;4976106;28;20034;-83
2022/11/05 11:54:37;;;;;;;5.25;2.75;;;14.10;75.20;;;;;;4993383;28;20057;-82
2022/11/05 11:57:23;;;;;;;6.63;3.25;;;14.10;75.50;;;;;;4995255;28;20124;-82
2022/11/05 11:59:48;;;;;;;8.68;3.80;;;14.00;75.60;;;;;;4975618;28;20033;-82
2022/11/05 12:02:23;;;;;;;8.40;3.10;;;14.10;75.80;;;;;;4976104;28;20390;-82
2022/11/05 12:05:11;;;;;;;6.75;3.00;;;14.10;75.80;;;;;;4992781;28;20140;-81
2022/11/05 12:07:54;;;;;;;8.63;3.40;;;14.10;75.90;;;;;;4994521;28;20034;-83
2022/11/05 12:10:23;;;;;;;7.18;3.10;;;14.10;76.20;;;;;;4976298;28;20034;-81
2022/11/05 12:13:13;;;;;;;8.95;3.60;;;14.10;76.20;;;;;;4976277;28;20034;-81
2022/11/05 12:15:59;;;;;;;5.63;3.00;;;14.00;76.00;;;;;;4976156;28;20038;-82
2022/11/05 12:19:02;;;;;;;6.30;2.88;;;13.90;76.30;;;;;;4994103;28;20022;-82
2022/11/05 12:21:48;;;;;;;7.10;2.92;;;13.80;76.60;;;;;;4976641;28;20475;-82
2022/11/05 12:24:22;;;;;;;8.48;2.92;;;13.70;76.70;;;;;;4976554;28;20474;-81
2022/11/05 12:27:11;;;;;;;8.68;3.17;;;13.50;76.80;;;;;;4975878;28;20052;-81
2022/11/05 12:29:50;;;;;;;7.28;3.08;;;13.50;77.40;;;;;;4976025;28;20085;-81
2022/11/05 12:32:34;;;;;;;7.70;3.47;;;13.40;77.80;;;;;;4976269;28;20027;-82
2022/11/05 12:35:33;;;;;;;7.82;3.55;;;13.40;78.10;;;;;;4975964;28;20032;-81
2022/11/05 12:38:46;;;;;;;10.57;3.58;;;13.30;78.30;;;;;;4975908;28;20030;-81
2022/11/05 12:41:54;;;;;;;7.07;2.75;;;13.40;78.70;;;;;;4975471;28;20466;-82
2022/11/05 12:44:54;;;;;;;8.90;3.30;;;13.50;78.90;;;;;;4972480;28;20390;-81
2022/11/05 12:47:28;;;;;;;8.50;3.58;;;13.60;78.90;;;;;;4977069;28;20509;-81
2022/11/05 12:50:09;;;;;;;6.93;2.85;;;13.70;79.00;;;;;;4979388;28;20074;-82
2022/11/05 12:52:53;;;;;;;9.52;3.42;;;13.80;79.10;;;;;;4979101;28;20497;-81
2022/11/05 12:55:22;;;;;;;10.90;3.50;;;13.80;78.70;;;;;;4996640;28;20390;-81
2022/11/05 12:57:53;;;;;;;7.00;2.70;;;13.90;78.50;;;;;;4996237;28;20042;-81
2022/11/05 13:00:24;;;;;;;9.57;3.65;;;13.90;78.50;;;;;;4996884;28;20382;-81
2022/11/05 13:02:52;;;;;;;8.20;3.70;;;13.90;78.00;;;;;;4979030;28;20022;-82
2022/11/05 13:05:38;;;;;;;10.80;3.75;;;14.00;78.10;;;;;;4979334;28;20026;-82
2022/11/05 13:08:15;;;;;;;9.30;3.88;;;14.00;78.10;;;;;;4978849;28;20034;-82
2022/11/05 13:10:56;;;;;;;8.07;3.63;;;14.00;77.80;;;;;;4979469;28;20534;-81
2022/11/05 13:13:31;;;;;;;10.02;3.40;;;14.00;77.90;;;;;;4979589;28;20030;-81
2022/11/05 13:16:01;;;;;;;12.68;3.83;;;13.90;77.80;;;;;;4979727;28;20034;-82
2022/11/05 13:18:33;;;;;;;8.90;3.90;;;13.90;78.00;;;;;;4979734;28;20027;-81
2022/11/05 13:21:04;;;;;;;7.57;3.72;;;13.80;77.90;;;;;;4979709;28;20173;-82
2022/11/05 13:23:52;;;;;;;8.52;3.50;;;13.80;78.10;;;;;;4979716;28;20449;-82
2022/11/05 13:26:37;;;;;;;9.13;3.92;;;13.70;78.40;;;;;;4997156;28;20026;-82
2022/11/05 13:29:14;;;;;;;6.72;3.35;;;13.60;78.60;;;;;;4979630;28;20027;-82
2022/11/05 13:31:46;;;;;;;10.40;3.47;;;13.70;79.10;;;;;;4980365;28;20025;-81
2022/11/05 13:34:12;;;;;;;8.98;4.40;;;13.60;79.20;;;;;;4980014;28;20034;-82
2022/11/05 13:39:56;;;;;;;10.23;4.00;;;13.60;79.50;;;;;;4999939;28;20113;-81
2022/11/05 13:42:59;;;;;;;12.02;4.70;;;13.60;79.70;;;;;;4981683;28;20045;-82
2022/11/05 13:45:33;;;;;;;11.65;4.25;;;13.50;79.80;;;;;;4978891;28;20026;-81
2022/11/05 13:48:32;;;;;;;10.55;5.18;;;13.50;79.90;;;;;;4974682;28;20054;-82
2022/11/05 13:51:12;;;;;;;8.55;3.47;;;13.40;80.20;;;;;;4975237;28;20031;-82
2022/11/05 13:54:02;;;;;;;9.15;3.78;;;13.40;80.40;;;;;;4975317;28;20033;-81